Friday, July 20, 2018, 12:36 PM EDT
Back to Local

KLBE, Latrobe / Westmorland

Location: Latrobe, PA, United States Lat: 40.283
Local Time: 12:36 PM EDT (16:36 GMT) Lon: -79.4
Time Zone: US/Eastern Elev: 1184 ft

Show me the last for .
Show Coded

Time T Td Feel RH Dir Speed Gust Alt SLP Vis Weather Sky Remarks
2018-07-20 11:47 81 61 82 51 170° 14 - 30.04 - 15 FEW046 SCT075 None
2018-07-20 10:47 79 61 80 54 180° 8 - 30.05 - 15 FEW060 None
2018-07-20 09:47 77 61 79 57 210° 6 - 30.06 - 15 FEW060 None
2018-07-20 08:45 73 61 77 64 190° 6 - 30.07 - 15 FEW065 None
2018-07-20 07:45 72 59 76 64 170° 7 - 30.06 - 15 FEW060 None
2018-07-20 06:45 68 59 - 72 - Calm - 30.06 - 15 CLR None
2018-07-20 05:55 66 57 - 72 - Calm - 30.06 - 10 CLR None
2018-07-20 05:35 66 57 - 72 250° 5 - 30.06 - 10 CLR None
2018-07-20 05:15 68 57 - 68 - Calm - 30.06 - 10 CLR None
2018-07-20 04:55 66 57 - 72 220° 7 - 30.06 - 10 CLR None
2018-07-20 04:35 68 57 - 68 Variable 3 - 30.06 - 10 CLR None
2018-07-20 04:15 68 57 - 68 Variable 6 - 30.06 - 10 CLR None
2018-07-20 03:55 68 57 - 68 - Calm - 30.06 - 10 CLR None
2018-07-20 03:35 68 57 - 68 230° 5 - 30.06 - 10 CLR None
2018-07-20 03:15 70 57 - 64 240° 7 - 30.06 - 10 CLR None
2018-07-20 02:55 70 57 - 64 - Calm - 30.05 - 10 CLR None
2018-07-20 02:35 70 57 - 64 200° 5 - 30.06 - 10 CLR None
2018-07-20 02:15 72 57 76 60 Variable 3 - 30.05 - 10 CLR None
2018-07-20 01:55 72 57 76 60 Variable 5 - 30.05 - 10 CLR None
2018-07-20 01:35 72 57 76 60 150° 7 - 30.06 - 10 CLR None
2018-07-20 01:15 72 57 76 60 130° 10 16 30.06 - 10 CLR None
2018-07-20 00:55 72 59 76 64 120° 8 - 30.06 - 10 CLR None
2018-07-20 00:35 72 59 76 64 130° 6 15 30.07 - 10 CLR None
2018-07-20 00:15 72 59 76 64 130° 10 - 30.07 - 10 CLR None
2018-07-19 23:55 73 59 77 60 130° 10 - 30.07 - 10 CLR None
2018-07-19 23:35 73 59 77 60 130° 8 - 30.07 - 10 CLR None
2018-07-19 23:15 73 59 77 60 120° 6 - 30.06 - 10 CLR None
2018-07-19 22:55 73 59 77 60 120° 8 - 30.06 - 10 CLR None
2018-07-19 22:35 73 59 77 60 Variable 7 - 30.06 - 10 CLR None
2018-07-19 22:15 73 59 77 60 110° 5 - 30.06 - 10 CLR None
2018-07-19 21:50 73 59 77 60 150° 7 - 30.06 - 10 CLR None
2018-07-19 20:50 75 59 78 57 170° 10 - 30.05 - 10 CLR None
2018-07-19 19:50 79 57 80 47 150° 6 - 30.05 - 10 CLR None
2018-07-19 18:50 81 57 81 44 150° 8 - 30.05 - 10 CLR None
2018-07-19 17:50 82 59 83 45 - Calm - 30.05 - 10 CLR None
2018-07-19 16:50 82 57 82 42 150° 7 - 30.07 - 10 CLR None
2018-07-19 15:50 81 55 81 42 - Calm - 30.08 - 10 CLR None
2018-07-19 14:45 81 57 81 44 290° 8 - 30.09 - 10 CLR None
2018-07-19 13:45 79 55 79 44 170° 6 - 30.11 - 10 CLR None
2018-07-19 12:50 79 55 79 44 170° 6 - 30.11 - 10 CLR None

Support USWX by starting your Amazon purchase here.